sensor_id;sensor_type;location;lat;lon;timestamp;temperature;humidity
33328;DHT22;19692;52.998;9.116;2022-11-04T00:01:57;10.90;99.90
33328;DHT22;19692;52.998;9.116;2022-11-04T00:04:25;10.90;99.90
33328;DHT22;19692;52.998;9.116;2022-11-04T00:06:52;10.90;99.90
33328;DHT22;19692;52.998;9.116;2022-11-04T00:09:21;11.00;99.90
33328;DHT22;19692;52.998;9.116;2022-11-04T00:11:48;11.00;99.90
33328;DHT22;19692;52.998;9.116;2022-11-04T00:14:34;11.00;99.90
33328;DHT22;19692;52.998;9.116;2022-11-04T00:17:01;10.90;99.90
33328;DHT22;19692;52.998;9.116;2022-11-04T00:19:50;11.00;99.90
33328;DHT22;19692;52.998;9.116;2022-11-04T00:22:36;10.90;99.90
33328;DHT22;19692;52.998;9.116;2022-11-04T00:25:22;11.00;99.90
33328;DHT22;19692;52.998;9.116;2022-11-04T00:28:15;10.90;99.90
33328;DHT22;19692;52.998;9.116;2022-11-04T00:31:01;10.90;99.90
33328;DHT22;19692;52.998;9.116;2022-11-04T00:33:47;10.90;99.90
33328;DHT22;19692;52.998;9.116;2022-11-04T00:36:13;10.90;99.90
33328;DHT22;19692;52.998;9.116;2022-11-04T00:38:39;10.90;99.90
33328;DHT22;19692;52.998;9.116;2022-11-04T00:41:05;10.90;99.90
33328;DHT22;19692;52.998;9.116;2022-11-04T00:43:51;10.80;99.90
33328;DHT22;19692;52.998;9.116;2022-11-04T00:46:17;10.80;99.90
33328;DHT22;19692;52.998;9.116;2022-11-04T00:48:43;10.70;99.90
33328;DHT22;19692;52.998;9.116;2022-11-04T00:51:09;10.70;99.90
33328;DHT22;19692;52.998;9.116;2022-11-04T00:53:34;10.70;99.90
33328;DHT22;19692;52.998;9.116;2022-11-04T00:56:00;10.70;99.90
33328;DHT22;19692;52.998;9.116;2022-11-04T00:58:27;10.70;99.90
33328;DHT22;19692;52.998;9.116;2022-11-04T01:00:53;10.70;99.90
33328;DHT22;19692;52.998;9.116;2022-11-04T01:03:19;10.70;99.90
33328;DHT22;19692;52.998;9.116;2022-11-04T01:05:45;10.70;99.90
33328;DHT22;19692;52.998;9.116;2022-11-04T01:08:11;10.70;99.90
33328;DHT22;19692;52.998;9.116;2022-11-04T01:10:36;10.70;99.90
33328;DHT22;19692;52.998;9.116;2022-11-04T01:13:09;10.70;99.90
33328;DHT22;19692;52.998;9.116;2022-11-04T01:15:36;10.70;99.90
33328;DHT22;19692;52.998;9.116;2022-11-04T01:18:03;10.70;99.90
33328;DHT22;19692;52.998;9.116;2022-11-04T01:20:30;10.70;99.90
33328;DHT22;19692;52.998;9.116;2022-11-04T01:22:56;10.70;99.90
33328;DHT22;19692;52.998;9.116;2022-11-04T01:25:22;10.70;99.90
33328;DHT22;19692;52.998;9.116;2022-11-04T01:27:48;10.70;99.90
33328;DHT22;19692;52.998;9.116;2022-11-04T01:30:13;10.70;99.90
33328;DHT22;19692;52.998;9.116;2022-11-04T01:32:39;10.70;99.90
33328;DHT22;19692;52.998;9.116;2022-11-04T01:35:05;10.70;99.90
33328;DHT22;19692;52.998;9.116;2022-11-04T01:37:31;10.80;99.90
33328;DHT22;19692;52.998;9.116;2022-11-04T01:39:57;10.80;99.90
33328;DHT22;19692;52.998;9.116;2022-11-04T01:42:23;10.70;99.90
33328;DHT22;19692;52.998;9.116;2022-11-04T01:44:52;10.70;99.90
33328;DHT22;19692;52.998;9.116;2022-11-04T01:47:27;10.70;99.90
33328;DHT22;19692;52.998;9.116;2022-11-04T01:50:18;10.70;99.90
33328;DHT22;19692;52.998;9.116;2022-11-04T01:52:51;10.70;99.90
33328;DHT22;19692;52.998;9.116;2022-11-04T01:55:21;10.70;99.90
33328;DHT22;19692;52.998;9.116;2022-11-04T01:57:50;10.70;99.90
33328;DHT22;19692;52.998;9.116;2022-11-04T02:00:18;10.70;99.90
33328;DHT22;19692;52.998;9.116;2022-11-04T02:05:23;10.70;99.90
33328;DHT22;19692;52.998;9.116;2022-11-04T02:07:52;10.70;99.90
33328;DHT22;19692;52.998;9.116;2022-11-04T02:10:21;10.70;99.90
33328;DHT22;19692;52.998;9.116;2022-11-04T02:12:50;10.70;99.90
33328;DHT22;19692;52.998;9.116;2022-11-04T02:15:33;10.70;99.90
33328;DHT22;19692;52.998;9.116;2022-11-04T02:18:20;10.80;99.90
33328;DHT22;19692;52.998;9.116;2022-11-04T02:27:03;11.00;99.90
33328;DHT22;19692;52.998;9.116;2022-11-04T02:29:57;11.10;99.90
33328;DHT22;19692;52.998;9.116;2022-11-04T02:41:14;11.30;99.90
33328;DHT22;19692;52.998;9.116;2022-11-04T02:46:53;11.30;99.90
33328;DHT22;19692;52.998;9.116;2022-11-04T02:52:44;11.30;99.90
33328;DHT22;19692;52.998;9.116;2022-11-04T02:55:54;11.30;99.90
33328;DHT22;19692;52.998;9.116;2022-11-04T02:59:03;11.30;99.90
33328;DHT22;19692;52.998;9.116;2022-11-04T03:01:12;11.30;99.90
33328;DHT22;19692;52.998;9.116;2022-11-04T03:03:46;11.30;99.90
33328;DHT22;19692;52.998;9.116;2022-11-04T03:06:16;11.30;99.90
33328;DHT22;19692;52.998;9.116;2022-11-04T03:08:47;11.40;99.90
33328;DHT22;19692;52.998;9.116;2022-11-04T03:11:17;11.30;99.90
33328;DHT22;19692;52.998;9.116;2022-11-04T03:16:49;11.30;99.90
33328;DHT22;19692;52.998;9.116;2022-11-04T03:19:43;11.20;99.90
33328;DHT22;19692;52.998;9.116;2022-11-04T03:22:20;11.20;99.90
33328;DHT22;19692;52.998;9.116;2022-11-04T03:24:48;11.20;99.90
33328;DHT22;19692;52.998;9.116;2022-11-04T03:30:14;11.10;99.90
33328;DHT22;19692;52.998;9.116;2022-11-04T03:33:17;11.10;99.90
33328;DHT22;19692;52.998;9.116;2022-11-04T03:35:46;11.00;99.90
33328;DHT22;19692;52.998;9.116;2022-11-04T03:38:12;11.00;99.90
33328;DHT22;19692;52.998;9.116;2022-11-04T03:40:38;11.00;99.90
33328;DHT22;19692;52.998;9.116;2022-11-04T03:43:13;11.00;99.90
33328;DHT22;19692;52.998;9.116;2022-11-04T03:45:50;10.90;99.90
33328;DHT22;19692;52.998;9.116;2022-11-04T03:48:16;10.90;99.90
33328;DHT22;19692;52.998;9.116;2022-11-04T03:50:46;10.90;99.90
33328;DHT22;19692;52.998;9.116;2022-11-04T03:53:17;10.90;99.90
33328;DHT22;19692;52.998;9.116;2022-11-04T04:02:10;10.90;99.90
33328;DHT22;19692;52.998;9.116;2022-11-04T04:04:44;10.90;99.90
33328;DHT22;19692;52.998;9.116;2022-11-04T04:07:20;10.90;99.90
33328;DHT22;19692;52.998;9.116;2022-11-04T04:10:03;10.90;99.90
33328;DHT22;19692;52.998;9.116;2022-11-04T04:12:56;10.80;99.90
33328;DHT22;19692;52.998;9.116;2022-11-04T04:15:39;10.80;99.90
33328;DHT22;19692;52.998;9.116;2022-11-04T04:18:15;10.70;99.90
33328;DHT22;19692;52.998;9.116;2022-11-04T04:20:44;10.70;99.90
33328;DHT22;19692;52.998;9.116;2022-11-04T04:23:22;10.60;99.90
33328;DHT22;19692;52.998;9.116;2022-11-04T04:26:09;10.50;99.90
33328;DHT22;19692;52.998;9.116;2022-11-04T04:28:55;10.50;99.90
33328;DHT22;19692;52.998;9.116;2022-11-04T04:31:22;10.40;99.90
33328;DHT22;19692;52.998;9.116;2022-11-04T04:34:08;10.40;99.90
33328;DHT22;19692;52.998;9.116;2022-11-04T04:36:45;10.40;99.90
33328;DHT22;19692;52.998;9.116;2022-11-04T04:39:17;10.50;99.90
33328;DHT22;19692;52.998;9.116;2022-11-04T04:42:02;10.50;99.90
33328;DHT22;19692;52.998;9.116;2022-11-04T04:44:47;10.50;99.90
33328;DHT22;19692;52.998;9.116;2022-11-04T04:47:26;10.50;99.90
33328;DHT22;19692;52.998;9.116;2022-11-04T04:49:56;10.50;99.90
33328;DHT22;19692;52.998;9.116;2022-11-04T04:52:25;10.50;99.90
33328;DHT22;19692;52.998;9.116;2022-11-04T04:54:53;10.50;99.90
33328;DHT22;19692;52.998;9.116;2022-11-04T04:57:19;10.50;99.90
33328;DHT22;19692;52.998;9.116;2022-11-04T04:59:44;10.50;99.90
33328;DHT22;19692;52.998;9.116;2022-11-04T05:02:10;10.50;99.90
33328;DHT22;19692;52.998;9.116;2022-11-04T05:04:36;10.50;99.90
33328;DHT22;19692;52.998;9.116;2022-11-04T05:07:02;10.50;99.90
33328;DHT22;19692;52.998;9.116;2022-11-04T05:09:28;10.40;99.90
33328;DHT22;19692;52.998;9.116;2022-11-04T05:11:53;10.40;99.90
33328;DHT22;19692;52.998;9.116;2022-11-04T05:14:19;10.40;99.90
33328;DHT22;19692;52.998;9.116;2022-11-04T05:16:45;10.40;99.90
33328;DHT22;19692;52.998;9.116;2022-11-04T05:19:11;10.40;99.90
33328;DHT22;19692;52.998;9.116;2022-11-04T05:21:36;10.30;99.90
33328;DHT22;19692;52.998;9.116;2022-11-04T05:24:02;10.40;99.90
33328;DHT22;19692;52.998;9.116;2022-11-04T05:26:28;10.40;99.90
33328;DHT22;19692;52.998;9.116;2022-11-04T05:28:54;10.40;99.90
33328;DHT22;19692;52.998;9.116;2022-11-04T05:31:20;10.30;99.90
33328;DHT22;19692;52.998;9.116;2022-11-04T05:33:46;10.30;99.90
33328;DHT22;19692;52.998;9.116;2022-11-04T05:36:14;10.30;99.90
33328;DHT22;19692;52.998;9.116;2022-11-04T05:38:41;10.30;99.90
33328;DHT22;19692;52.998;9.116;2022-11-04T05:41:09;10.20;99.90
33328;DHT22;19692;52.998;9.116;2022-11-04T05:43:36;10.20;99.90
33328;DHT22;19692;52.998;9.116;2022-11-04T05:46:02;10.20;99.90
33328;DHT22;19692;52.998;9.116;2022-11-04T05:48:28;10.10;99.90
33328;DHT22;19692;52.998;9.116;2022-11-04T05:50:54;10.10;99.90
33328;DHT22;19692;52.998;9.116;2022-11-04T05:53:20;10.10;99.90
33328;DHT22;19692;52.998;9.116;2022-11-04T05:55:46;10.00;99.90
33328;DHT22;19692;52.998;9.116;2022-11-04T05:58:12;10.00;99.90
33328;DHT22;19692;52.998;9.116;2022-11-04T06:00:38;10.10;99.90
33328;DHT22;19692;52.998;9.116;2022-11-04T06:03:04;10.10;99.90
33328;DHT22;19692;52.998;9.116;2022-11-04T06:05:29;10.20;99.90
33328;DHT22;19692;52.998;9.116;2022-11-04T06:07:56;10.20;99.90
33328;DHT22;19692;52.998;9.116;2022-11-04T06:10:22;10.30;99.90
33328;DHT22;19692;52.998;9.116;2022-11-04T06:12:48;10.30;99.90
33328;DHT22;19692;52.998;9.116;2022-11-04T06:15:15;10.30;99.90
33328;DHT22;19692;52.998;9.116;2022-11-04T06:17:40;10.40;99.90
33328;DHT22;19692;52.998;9.116;2022-11-04T06:20:06;10.40;99.90
33328;DHT22;19692;52.998;9.116;2022-11-04T06:22:33;10.40;99.90
33328;DHT22;19692;52.998;9.116;2022-11-04T06:24:58;10.40;99.90
33328;DHT22;19692;52.998;9.116;2022-11-04T06:27:24;10.40;99.90
33328;DHT22;19692;52.998;9.116;2022-11-04T06:29:50;10.40;99.90
33328;DHT22;19692;52.998;9.116;2022-11-04T06:32:17;10.50;99.90
33328;DHT22;19692;52.998;9.116;2022-11-04T06:34:44;10.50;99.90
33328;DHT22;19692;52.998;9.116;2022-11-04T06:37:10;10.50;99.90
33328;DHT22;19692;52.998;9.116;2022-11-04T06:39:36;10.50;99.90
33328;DHT22;19692;52.998;9.116;2022-11-04T06:42:03;10.40;99.90
33328;DHT22;19692;52.998;9.116;2022-11-04T06:44:29;10.40;99.90
33328;DHT22;19692;52.998;9.116;2022-11-04T06:46:55;10.40;99.90
33328;DHT22;19692;52.998;9.116;2022-11-04T06:49:21;10.40;99.90
33328;DHT22;19692;52.998;9.116;2022-11-04T06:51:48;10.50;99.90
33328;DHT22;19692;52.998;9.116;2022-11-04T06:54:15;10.40;99.90
33328;DHT22;19692;52.998;9.116;2022-11-04T06:56:41;10.40;99.90
33328;DHT22;19692;52.998;9.116;2022-11-04T06:59:11;10.40;99.90
33328;DHT22;19692;52.998;9.116;2022-11-04T07:01:40;10.40;99.90
33328;DHT22;19692;52.998;9.116;2022-11-04T07:04:06;10.40;99.90
33328;DHT22;19692;52.998;9.116;2022-11-04T07:06:32;10.40;99.90
33328;DHT22;19692;52.998;9.116;2022-11-04T07:08:59;10.40;99.90
33328;DHT22;19692;52.998;9.116;2022-11-04T07:11:30;10.40;99.90
33328;DHT22;19692;52.998;9.116;2022-11-04T07:13:57;10.30;99.90
33328;DHT22;19692;52.998;9.116;2022-11-04T07:16:24;10.30;99.90
33328;DHT22;19692;52.998;9.116;2022-11-04T07:18:50;10.40;99.90
33328;DHT22;19692;52.998;9.116;2022-11-04T07:21:16;10.30;99.90
33328;DHT22;19692;52.998;9.116;2022-11-04T07:23:42;10.30;99.90
33328;DHT22;19692;52.998;9.116;2022-11-04T07:26:10;10.30;99.90
33328;DHT22;19692;52.998;9.116;2022-11-04T07:28:36;10.20;99.90
33328;DHT22;19692;52.998;9.116;2022-11-04T07:31:05;10.20;99.90
33328;DHT22;19692;52.998;9.116;2022-11-04T07:33:31;10.30;99.90
33328;DHT22;19692;52.998;9.116;2022-11-04T07:35:58;10.30;99.90
33328;DHT22;19692;52.998;9.116;2022-11-04T07:38:27;10.30;99.90
33328;DHT22;19692;52.998;9.116;2022-11-04T07:40:52;10.30;99.90
33328;DHT22;19692;52.998;9.116;2022-11-04T07:43:18;10.30;99.90
33328;DHT22;19692;52.998;9.116;2022-11-04T07:45:44;10.30;99.90
33328;DHT22;19692;52.998;9.116;2022-11-04T07:48:10;10.30;99.90
33328;DHT22;19692;52.998;9.116;2022-11-04T07:50:38;10.30;99.90
33328;DHT22;19692;52.998;9.116;2022-11-04T07:53:04;10.30;99.90
33328;DHT22;19692;52.998;9.116;2022-11-04T07:55:30;10.30;99.90
33328;DHT22;19692;52.998;9.116;2022-11-04T07:57:56;10.40;99.90
33328;DHT22;19692;52.998;9.116;2022-11-04T08:00:22;10.30;99.90
33328;DHT22;19692;52.998;9.116;2022-11-04T08:02:47;10.30;99.90
33328;DHT22;19692;52.998;9.116;2022-11-04T08:05:13;10.40;99.90
33328;DHT22;19692;52.998;9.116;2022-11-04T08:07:39;10.30;99.90
33328;DHT22;19692;52.998;9.116;2022-11-04T08:10:06;10.40;99.90
33328;DHT22;19692;52.998;9.116;2022-11-04T08:12:32;10.40;99.90
33328;DHT22;19692;52.998;9.116;2022-11-04T08:14:59;10.40;99.90
33328;DHT22;19692;52.998;9.116;2022-11-04T08:17:25;10.40;99.90
33328;DHT22;19692;52.998;9.116;2022-11-04T08:19:50;10.30;99.90
33328;DHT22;19692;52.998;9.116;2022-11-04T08:22:16;10.40;99.90
33328;DHT22;19692;52.998;9.116;2022-11-04T08:24:42;10.30;99.90
33328;DHT22;19692;52.998;9.116;2022-11-04T08:27:11;10.40;99.90
33328;DHT22;19692;52.998;9.116;2022-11-04T08:29:38;10.40;99.90
33328;DHT22;19692;52.998;9.116;2022-11-04T08:32:04;10.30;99.90
33328;DHT22;19692;52.998;9.116;2022-11-04T08:34:31;10.40;99.90
33328;DHT22;19692;52.998;9.116;2022-11-04T08:36:57;10.40;99.90
33328;DHT22;19692;52.998;9.116;2022-11-04T08:39:24;10.40;99.90
33328;DHT22;19692;52.998;9.116;2022-11-04T08:41:51;10.40;99.90
33328;DHT22;19692;52.998;9.116;2022-11-04T08:44:18;10.50;99.90
33328;DHT22;19692;52.998;9.116;2022-11-04T08:46:45;10.50;99.90
33328;DHT22;19692;52.998;9.116;2022-11-04T08:49:11;10.60;99.90
33328;DHT22;19692;52.998;9.116;2022-11-04T08:51:42;10.60;99.90
33328;DHT22;19692;52.998;9.116;2022-11-04T08:54:09;10.60;99.90
33328;DHT22;19692;52.998;9.116;2022-11-04T08:56:39;10.70;99.90
33328;DHT22;19692;52.998;9.116;2022-11-04T08:59:06;10.80;99.90
33328;DHT22;19692;52.998;9.116;2022-11-04T09:01:34;10.80;99.90
33328;DHT22;19692;52.998;9.116;2022-11-04T09:04:01;10.90;99.90
33328;DHT22;19692;52.998;9.116;2022-11-04T09:06:31;10.90;99.90
33328;DHT22;19692;52.998;9.116;2022-11-04T09:08:59;11.10;99.90
33328;DHT22;19692;52.998;9.116;2022-11-04T09:11:30;11.20;99.90
33328;DHT22;19692;52.998;9.116;2022-11-04T09:14:01;11.40;99.90
33328;DHT22;19692;52.998;9.116;2022-11-04T09:16:32;11.60;99.90
33328;DHT22;19692;52.998;9.116;2022-11-04T09:18:59;11.90;99.90
33328;DHT22;19692;52.998;9.116;2022-11-04T09:21:27;12.00;99.90
33328;DHT22;19692;52.998;9.116;2022-11-04T09:23:53;12.10;99.90
33328;DHT22;19692;52.998;9.116;2022-11-04T09:26:20;12.00;99.90
33328;DHT22;19692;52.998;9.116;2022-11-04T09:28:51;11.90;99.90
33328;DHT22;19692;52.998;9.116;2022-11-04T09:31:21;11.60;99.90
33328;DHT22;19692;52.998;9.116;2022-11-04T09:33:49;11.50;99.90
33328;DHT22;19692;52.998;9.116;2022-11-04T09:36:16;11.40;99.90
33328;DHT22;19692;52.998;9.116;2022-11-04T09:38:42;11.40;99.90
33328;DHT22;19692;52.998;9.116;2022-11-04T09:41:34;11.50;99.90
33328;DHT22;19692;52.998;9.116;2022-11-04T09:46:53;11.50;99.90
33328;DHT22;19692;52.998;9.116;2022-11-04T09:49:22;11.50;99.90
33328;DHT22;19692;52.998;9.116;2022-11-04T09:51:49;11.60;99.90
33328;DHT22;19692;52.998;9.116;2022-11-04T09:54:22;11.60;99.90
33328;DHT22;19692;52.998;9.116;2022-11-04T09:56:50;11.70;99.90
33328;DHT22;19692;52.998;9.116;2022-11-04T09:59:23;11.70;99.90
33328;DHT22;19692;52.998;9.116;2022-11-04T10:05:08;11.70;99.90
33328;DHT22;19692;52.998;9.116;2022-11-04T10:19:00;11.90;99.90
33328;DHT22;19692;52.998;9.116;2022-11-04T10:27:21;13.40;99.90
33328;DHT22;19692;52.998;9.116;2022-11-04T10:29:59;13.80;99.90
33328;DHT22;19692;52.998;9.116;2022-11-04T10:32:32;14.00;99.90
33328;DHT22;19692;52.998;9.116;2022-11-04T10:35:09;13.80;99.90
33328;DHT22;19692;52.998;9.116;2022-11-04T10:37:43;13.90;99.90
33328;DHT22;19692;52.998;9.116;2022-11-04T10:40:22;14.00;99.90
33328;DHT22;19692;52.998;9.116;2022-11-04T10:42:54;13.90;99.90
33328;DHT22;19692;52.998;9.116;2022-11-04T10:45:33;13.50;99.90
33328;DHT22;19692;52.998;9.116;2022-11-04T10:48:13;13.20;99.90
33328;DHT22;19692;52.998;9.116;2022-11-04T10:50:57;13.00;99.90
33328;DHT22;19692;52.998;9.116;2022-11-04T10:53:29;12.90;99.90
33328;DHT22;19692;52.998;9.116;2022-11-04T10:56:06;12.90;99.90
33328;DHT22;19692;52.998;9.116;2022-11-04T10:58:45;13.10;99.90
33328;DHT22;19692;52.998;9.116;2022-11-04T11:01:47;13.50;99.90
33328;DHT22;19692;52.998;9.116;2022-11-04T11:04:28;13.50;99.90
33328;DHT22;19692;52.998;9.116;2022-11-04T11:07:04;13.20;99.90
33328;DHT22;19692;52.998;9.116;2022-11-04T11:09:32;13.20;99.90
33328;DHT22;19692;52.998;9.116;2022-11-04T11:12:18;13.10;99.90
33328;DHT22;19692;52.998;9.116;2022-11-04T11:14:51;13.20;99.90
33328;DHT22;19692;52.998;9.116;2022-11-04T11:17:34;13.10;99.90
33328;DHT22;19692;52.998;9.116;2022-11-04T11:20:21;13.20;99.90
33328;DHT22;19692;52.998;9.116;2022-11-04T11:22:49;13.30;99.90
33328;DHT22;19692;52.998;9.116;2022-11-04T11:25:26;13.30;99.90
33328;DHT22;19692;52.998;9.116;2022-11-04T11:35:51;12.90;99.90
33328;DHT22;19692;52.998;9.116;2022-11-04T11:38:27;13.00;99.90
33328;DHT22;19692;52.998;9.116;2022-11-04T11:41:10;13.40;99.90
33328;DHT22;19692;52.998;9.116;2022-11-04T11:43:45;13.90;99.90
33328;DHT22;19692;52.998;9.116;2022-11-04T11:46:21;13.60;99.90
33328;DHT22;19692;52.998;9.116;2022-11-04T11:48:56;14.00;99.90
33328;DHT22;19692;52.998;9.116;2022-11-04T11:54:25;14.90;99.90
33328;DHT22;19692;52.998;9.116;2022-11-04T11:57:01;15.10;99.90
33328;DHT22;19692;52.998;9.116;2022-11-04T11:59:52;14.80;99.90
33328;DHT22;19692;52.998;9.116;2022-11-04T12:02:45;14.30;99.90
33328;DHT22;19692;52.998;9.116;2022-11-04T12:05:16;14.10;99.90
33328;DHT22;19692;52.998;9.116;2022-11-04T12:11:08;14.00;99.90
33328;DHT22;19692;52.998;9.116;2022-11-04T12:13:55;14.60;99.90
33328;DHT22;19692;52.998;9.116;2022-11-04T12:22:46;13.80;99.90
33328;DHT22;19692;52.998;9.116;2022-11-04T12:25:43;13.50;99.90
33328;DHT22;19692;52.998;9.116;2022-11-04T12:28:38;13.40;99.90
33328;DHT22;19692;52.998;9.116;2022-11-04T12:37:10;12.90;99.90
33328;DHT22;19692;52.998;9.116;2022-11-04T12:42:58;13.70;99.90
33328;DHT22;19692;52.998;9.116;2022-11-04T12:48:25;14.50;99.90
33328;DHT22;19692;52.998;9.116;2022-11-04T12:56:37;14.10;99.90
33328;DHT22;19692;52.998;9.116;2022-11-04T13:02:23;13.60;99.90
33328;DHT22;19692;52.998;9.116;2022-11-04T13:04:58;13.30;99.90
33328;DHT22;19692;52.998;9.116;2022-11-04T13:07:51;13.10;99.90
33328;DHT22;19692;52.998;9.116;2022-11-04T13:10:27;13.10;99.90
33328;DHT22;19692;52.998;9.116;2022-11-04T13:13:02;13.10;99.90
33328;DHT22;19692;52.998;9.116;2022-11-04T13:15:32;13.10;99.90
33328;DHT22;19692;52.998;9.116;2022-11-04T13:18:17;13.10;99.90
33328;DHT22;19692;52.998;9.116;2022-11-04T13:23:26;13.20;99.90
33328;DHT22;19692;52.998;9.116;2022-11-04T13:25:55;13.40;99.90
33328;DHT22;19692;52.998;9.116;2022-11-04T13:28:23;13.90;99.90
33328;DHT22;19692;52.998;9.116;2022-11-04T13:33:34;14.80;99.90
33328;DHT22;19692;52.998;9.116;2022-11-04T13:36:51;15.30;99.90
33328;DHT22;19692;52.998;9.116;2022-11-04T13:39:18;15.30;99.90
33328;DHT22;19692;52.998;9.116;2022-11-04T13:42:08;15.60;99.90
33328;DHT22;19692;52.998;9.116;2022-11-04T13:44:57;15.60;99.90
33328;DHT22;19692;52.998;9.116;2022-11-04T13:47:35;15.80;99.90
33328;DHT22;19692;52.998;9.116;2022-11-04T13:50:03;15.70;99.90
33328;DHT22;19692;52.998;9.116;2022-11-04T13:52:31;15.70;99.90
33328;DHT22;19692;52.998;9.116;2022-11-04T13:55:16;16.10;99.90
33328;DHT22;19692;52.998;9.116;2022-11-04T13:57:58;16.20;99.90
33328;DHT22;19692;52.998;9.116;2022-11-04T14:00:27;16.10;99.90
33328;DHT22;19692;52.998;9.116;2022-11-04T14:02:58;16.30;99.90
33328;DHT22;19692;52.998;9.116;2022-11-04T14:18:30;15.60;99.90
33328;DHT22;19692;52.998;9.116;2022-11-04T14:23:36;15.00;99.90
33328;DHT22;19692;52.998;9.116;2022-11-04T14:26:18;14.80;99.90
33328;DHT22;19692;52.998;9.116;2022-11-04T14:28:49;14.70;99.90
33328;DHT22;19692;52.998;9.116;2022-11-04T14:31:42;14.60;99.90
33328;DHT22;19692;52.998;9.116;2022-11-04T14:34:30;14.70;99.90
33328;DHT22;19692;52.998;9.116;2022-11-04T14:37:00;15.00;99.90
33328;DHT22;19692;52.998;9.116;2022-11-04T14:39:28;14.60;99.90
33328;DHT22;19692;52.998;9.116;2022-11-04T14:42:03;14.50;99.90
33328;DHT22;19692;52.998;9.116;2022-11-04T14:44:35;14.70;99.90
33328;DHT22;19692;52.998;9.116;2022-11-04T14:47:20;14.90;99.90
33328;DHT22;19692;52.998;9.116;2022-11-04T14:50:03;15.00;99.90
33328;DHT22;19692;52.998;9.116;2022-11-04T14:55:12;15.20;99.90
33328;DHT22;19692;52.998;9.116;2022-11-04T14:57:46;15.40;99.90
33328;DHT22;19692;52.998;9.116;2022-11-04T15:00:27;15.20;99.90
33328;DHT22;19692;52.998;9.116;2022-11-04T15:03:05;14.80;99.90
33328;DHT22;19692;52.998;9.116;2022-11-04T15:05:38;14.40;99.90
33328;DHT22;19692;52.998;9.116;2022-11-04T15:08:31;14.30;99.90
33328;DHT22;19692;52.998;9.116;2022-11-04T15:11:11;14.00;99.90
33328;DHT22;19692;52.998;9.116;2022-11-04T15:13:46;13.80;99.90
33328;DHT22;19692;52.998;9.116;2022-11-04T15:16:25;13.70;99.90
33328;DHT22;19692;52.998;9.116;2022-11-04T15:18:55;13.60;99.90
33328;DHT22;19692;52.998;9.116;2022-11-04T15:21:22;13.40;99.90
33328;DHT22;19692;52.998;9.116;2022-11-04T15:23:51;13.30;99.90
33328;DHT22;19692;52.998;9.116;2022-11-04T15:26:25;13.20;99.90
33328;DHT22;19692;52.998;9.116;2022-11-04T15:28:52;13.10;99.90
33328;DHT22;19692;52.998;9.116;2022-11-04T15:31:24;13.00;99.90
33328;DHT22;19692;52.998;9.116;2022-11-04T15:33:59;12.90;99.90
33328;DHT22;19692;52.998;9.116;2022-11-04T15:36:29;12.90;99.90
33328;DHT22;19692;52.998;9.116;2022-11-04T15:42:15;12.80;99.90
33328;DHT22;19692;52.998;9.116;2022-11-04T15:53:52;12.40;99.90
33328;DHT22;19692;52.998;9.116;2022-11-04T15:56:38;12.30;99.90
33328;DHT22;19692;52.998;9.116;2022-11-04T15:59:14;12.30;99.90
33328;DHT22;19692;52.998;9.116;2022-11-04T16:01:50;12.30;99.90
33328;DHT22;19692;52.998;9.116;2022-11-04T16:04:20;12.10;99.90
33328;DHT22;19692;52.998;9.116;2022-11-04T16:07:21;12.00;99.90
33328;DHT22;19692;52.998;9.116;2022-11-04T16:09:50;12.00;99.90
33328;DHT22;19692;52.998;9.116;2022-11-04T16:12:26;11.80;99.90
33328;DHT22;19692;52.998;9.116;2022-11-04T16:14:56;11.70;99.90
33328;DHT22;19692;52.998;9.116;2022-11-04T16:17:23;11.70;99.90
33328;DHT22;19692;52.998;9.116;2022-11-04T16:20:02;11.50;99.90
33328;DHT22;19692;52.998;9.116;2022-11-04T16:22:33;11.50;99.90
33328;DHT22;19692;52.998;9.116;2022-11-04T16:25:03;11.40;99.90
33328;DHT22;19692;52.998;9.116;2022-11-04T16:27:32;11.30;99.90
33328;DHT22;19692;52.998;9.116;2022-11-04T16:30:05;11.20;99.90
33328;DHT22;19692;52.998;9.116;2022-11-04T16:32:50;11.20;99.90
33328;DHT22;19692;52.998;9.116;2022-11-04T16:35:21;11.20;99.90
33328;DHT22;19692;52.998;9.116;2022-11-04T16:37:52;11.10;99.90
33328;DHT22;19692;52.998;9.116;2022-11-04T16:40:21;11.00;99.90
33328;DHT22;19692;52.998;9.116;2022-11-04T16:42:48;10.90;99.90
33328;DHT22;19692;52.998;9.116;2022-11-04T16:45:25;10.90;99.90
33328;DHT22;19692;52.998;9.116;2022-11-04T16:47:53;10.80;99.90
33328;DHT22;19692;52.998;9.116;2022-11-04T16:50:19;10.80;99.90
33328;DHT22;19692;52.998;9.116;2022-11-04T16:52:45;10.80;99.90
33328;DHT22;19692;52.998;9.116;2022-11-04T16:55:12;10.90;99.90
33328;DHT22;19692;52.998;9.116;2022-11-04T16:57:40;10.90;99.90
33328;DHT22;19692;52.998;9.116;2022-11-04T17:00:06;10.90;99.90
33328;DHT22;19692;52.998;9.116;2022-11-04T17:02:34;10.90;99.90
33328;DHT22;19692;52.998;9.116;2022-11-04T17:05:06;10.80;99.90
33328;DHT22;19692;52.998;9.116;2022-11-04T17:07:37;10.90;99.90
33328;DHT22;19692;52.998;9.116;2022-11-04T17:10:04;10.90;99.90
33328;DHT22;19692;52.998;9.116;2022-11-04T17:12:40;11.00;99.90
33328;DHT22;19692;52.998;9.116;2022-11-04T17:15:06;10.90;99.90
33328;DHT22;19692;52.998;9.116;2022-11-04T17:17:32;10.90;99.90
33328;DHT22;19692;52.998;9.116;2022-11-04T17:19:58;10.90;99.90
33328;DHT22;19692;52.998;9.116;2022-11-04T17:22:23;10.80;99.90
33328;DHT22;19692;52.998;9.116;2022-11-04T17:24:49;10.80;99.90
33328;DHT22;19692;52.998;9.116;2022-11-04T17:27:15;10.80;99.90
33328;DHT22;19692;52.998;9.116;2022-11-04T17:29:41;10.70;99.90
33328;DHT22;19692;52.998;9.116;2022-11-04T17:32:08;10.60;99.90
33328;DHT22;19692;52.998;9.116;2022-11-04T17:34:34;10.50;99.90
33328;DHT22;19692;52.998;9.116;2022-11-04T17:37:00;10.50;99.90
33328;DHT22;19692;52.998;9.116;2022-11-04T17:39:26;10.50;99.90
33328;DHT22;19692;52.998;9.116;2022-11-04T17:41:52;10.40;99.90
33328;DHT22;19692;52.998;9.116;2022-11-04T17:44:37;10.40;99.90
33328;DHT22;19692;52.998;9.116;2022-11-04T17:47:03;10.30;99.90
33328;DHT22;19692;52.998;9.116;2022-11-04T17:49:28;10.30;99.90
33328;DHT22;19692;52.998;9.116;2022-11-04T17:51:56;10.20;99.90
33328;DHT22;19692;52.998;9.116;2022-11-04T17:54:27;10.10;99.90
33328;DHT22;19692;52.998;9.116;2022-11-04T17:56:55;10.10;99.90
33328;DHT22;19692;52.998;9.116;2022-11-04T17:59:21;10.00;99.90
33328;DHT22;19692;52.998;9.116;2022-11-04T18:01:47;10.00;99.90
33328;DHT22;19692;52.998;9.116;2022-11-04T18:04:16;9.90;99.90
33328;DHT22;19692;52.998;9.116;2022-11-04T18:06:46;9.90;99.90
33328;DHT22;19692;52.998;9.116;2022-11-04T18:09:12;9.90;99.90
33328;DHT22;19692;52.998;9.116;2022-11-04T18:11:42;9.80;99.90
33328;DHT22;19692;52.998;9.116;2022-11-04T18:14:28;9.80;99.90
33328;DHT22;19692;52.998;9.116;2022-11-04T18:16:54;9.70;99.90